Time;durP1;ratioP1;P1;durP2;ratioP2;P2;SDS_P1;SDS_P2;PMS_P1;PMS_P2;Temp;Humidity;BMP_temperature;BMP_pressure;BME280_temperature;BME280_humidity;BME280_pressure;Samples;Min_cycle;Max_cycle;Signal;HPM_P1;HPM_P2
2022/01/09 00:00:26;;;;;;;0.30;0.30;;;22.00;31.80;;;;;;5054457;28;20017;-53
2022/01/09 00:02:53;;;;;;;0.43;0.30;;;21.90;31.80;;;;;;5054871;28;20448;-54
2022/01/09 00:05:19;;;;;;;0.30;0.20;;;21.90;32.40;;;;;;5054794;28;20048;-58
2022/01/09 00:07:46;;;;;;;0.28;0.20;;;21.90;31.80;;;;;;5037543;28;20444;-54
2022/01/09 00:10:12;;;;;;;0.30;0.30;;;21.90;31.80;;;;;;5055579;28;20040;-53
2022/01/09 00:12:37;;;;;;;0.65;0.40;;;21.90;31.80;;;;;;5054718;28;20029;-55
2022/01/09 00:15:04;;;;;;;0.15;0.15;;;21.90;31.90;;;;;;5054802;28;20092;-52
2022/01/09 00:17:31;;;;;;;0.57;0.45;;;21.90;31.90;;;;;;5054482;28;20021;-52
2022/01/09 00:19:57;;;;;;;0.68;0.30;;;21.90;32.00;;;;;;5053823;28;20060;-56
2022/01/09 00:22:46;;;;;;;0.20;0.20;;;21.90;31.90;;;;;;5055027;28;20029;-55
2022/01/09 00:25:10;;;;;;;0.13;0.13;;;21.90;31.90;;;;;;5054565;28;20124;-54
2022/01/09 00:27:36;;;;;;;0.63;0.30;;;21.90;32.00;;;;;;5054941;28;20039;-56
2022/01/09 00:30:07;;;;;;;0.50;0.10;;;21.80;31.90;;;;;;5054524;28;20032;-51
2022/01/09 00:32:33;;;;;;;0.30;0.20;;;21.90;32.00;;;;;;5054881;28;20025;-53
2022/01/09 00:34:58;;;;;;;0.63;0.28;;;21.90;32.00;;;;;;5054785;28;20032;-55
2022/01/09 00:37:24;;;;;;;0.30;0.30;;;21.80;32.00;;;;;;5054362;28;20023;-56
2022/01/09 00:39:51;;;;;;;0.52;0.30;;;21.80;32.00;;;;;;5054718;28;20025;-53
2022/01/09 00:42:18;;;;;;;0.75;0.30;;;21.80;32.00;;;;;;5054868;28;20041;-55
2022/01/09 00:44:43;;;;;;;0.20;0.20;;;21.80;32.00;;;;;;5054536;28;20059;-55
2022/01/09 00:47:09;;;;;;;0.20;0.20;;;21.80;32.00;;;;;;5054368;28;20072;-58
2022/01/09 00:49:35;;;;;;;0.40;0.30;;;21.80;32.00;;;;;;5054146;28;20053;-53
2022/01/09 00:52:01;;;;;;;0.50;0.20;;;21.80;32.10;;;;;;5053539;28;20017;-54
2022/01/09 00:54:26;;;;;;;0.10;0.10;;;21.80;32.10;;;;;;5035899;28;20064;-57
2022/01/09 00:56:52;;;;;;;0.30;0.20;;;21.80;32.10;;;;;;5054557;28;20080;-57
2022/01/09 00:59:18;;;;;;;0.47;0.30;;;21.80;32.10;;;;;;5036527;28;20494;-55
2022/01/09 01:01:44;;;;;;;0.20;0.20;;;21.80;32.10;;;;;;5054176;28;20036;-54
2022/01/09 01:04:10;;;;;;;0.43;0.20;;;21.80;32.20;;;;;;5053821;28;20027;-51
2022/01/09 01:06:35;;;;;;;0.00;0.00;;;21.80;32.10;;;;;;5054194;28;20029;-57
2022/01/09 01:09:02;;;;;;;0.10;0.10;;;21.70;32.80;;;;;;5053894;28;20071;-55
2022/01/09 01:11:27;;;;;;;0.10;0.10;;;21.70;32.10;;;;;;5053933;28;20044;-50
2022/01/09 01:13:53;;;;;;;0.65;0.30;;;21.70;32.10;;;;;;5054312;28;20432;-54
2022/01/09 01:16:19;;;;;;;0.20;0.17;;;21.70;32.20;;;;;;5053987;28;20025;-53
2022/01/09 01:18:45;;;;;;;0.55;0.20;;;21.70;32.20;;;;;;5053824;28;20029;-55
2022/01/09 01:21:12;;;;;;;0.10;0.10;;;21.70;32.90;;;;;;5033576;28;20042;-57
2022/01/09 01:23:38;;;;;;;0.65;0.20;;;21.70;32.20;;;;;;5053954;28;20037;-50
2022/01/09 01:26:04;;;;;;;0.20;0.20;;;21.70;32.20;;;;;;5053827;28;20112;-55
2022/01/09 01:28:31;;;;;;;0.10;0.10;;;21.70;32.20;;;;;;5053620;28;20379;-58
2022/01/09 01:30:57;;;;;;;0.35;0.20;;;21.70;32.30;;;;;;5053741;28;20028;-49
2022/01/09 01:33:23;;;;;;;0.30;0.20;;;21.70;32.30;;;;;;5053952;28;20082;-50
2022/01/09 01:35:50;;;;;;;0.20;0.10;;;21.70;32.30;;;;;;5053373;28;20033;-55
2022/01/09 01:38:16;;;;;;;0.30;0.20;;;21.70;32.30;;;;;;5053968;28;20025;-57
2022/01/09 01:40:41;;;;;;;0.10;0.10;;;21.70;32.30;;;;;;5053408;28;20113;-55
2022/01/09 01:43:08;;;;;;;0.50;0.22;;;21.70;32.40;;;;;;5053303;28;20444;-56
2022/01/09 01:45:34;;;;;;;0.50;0.22;;;21.70;32.40;;;;;;5053338;28;20143;-55
2022/01/09 01:48:05;;;;;;;0.25;0.20;;;21.70;32.40;;;;;;5053601;28;20103;-58
2022/01/09 01:50:36;;;;;;;0.10;0.10;;;21.70;32.40;;;;;;5052976;28;20021;-51
2022/01/09 01:53:05;;;;;;;0.65;0.20;;;21.70;32.50;;;;;;5053049;28;20428;-54
2022/01/09 01:55:36;;;;;;;0.00;0.00;;;21.70;32.40;;;;;;5052843;28;20040;-54
2022/01/09 01:58:03;;;;;;;0.52;0.22;;;21.70;32.40;;;;;;5053200;28;20020;-54
2022/01/09 02:00:29;;;;;;;0.57;0.30;;;21.70;32.40;;;;;;5053171;28;20372;-52
2022/01/09 02:02:58;;;;;;;0.85;0.40;;;21.70;32.40;;;;;;5052794;28;20448;-59
2022/01/09 02:05:24;;;;;;;0.90;0.50;;;21.70;33.00;;;;;;5053401;28;20048;-54
2022/01/09 02:07:51;;;;;;;1.70;0.65;;;21.70;32.40;;;;;;5031900;28;20037;-53
2022/01/09 02:10:17;;;;;;;0.75;0.35;;;21.70;32.40;;;;;;5035690;28;20340;-54
2022/01/09 02:12:43;;;;;;;1.33;0.50;;;21.70;32.40;;;;;;5053019;28;20029;-59
2022/01/09 02:15:44;;;;;;;1.23;0.60;;;21.70;32.40;;;;;;5053195;28;20024;-56
2022/01/09 02:18:13;;;;;;;1.40;0.60;;;21.70;32.40;;;;;;5050645;28;20039;-56
2022/01/09 02:20:40;;;;;;;2.10;0.50;;;21.70;32.40;;;;;;5053208;28;20029;-53
2022/01/09 02:23:09;;;;;;;1.55;0.60;;;21.70;32.50;;;;;;5035357;28;20417;-57
2022/01/09 02:25:36;;;;;;;1.52;0.70;;;21.70;32.50;;;;;;5052818;28;20021;-54
2022/01/09 02:28:03;;;;;;;1.45;0.70;;;21.70;32.50;;;;;;5053255;28;20025;-51
2022/01/09 02:30:32;;;;;;;3.13;0.90;;;21.70;32.50;;;;;;5052303;28;21305;-54
2022/01/09 02:33:02;;;;;;;2.42;0.90;;;21.70;32.50;;;;;;5051022;28;20048;-55
2022/01/09 02:35:28;;;;;;;2.38;0.88;;;21.70;32.60;;;;;;5053085;28;20316;-55
2022/01/09 02:37:55;;;;;;;2.25;1.00;;;21.70;32.70;;;;;;5053082;28;20318;-49
2022/01/09 02:40:22;;;;;;;2.08;0.70;;;21.70;32.70;;;;;;5052269;28;20452;-53
2022/01/09 02:42:50;;;;;;;4.47;1.23;;;21.60;32.80;;;;;;5052974;28;20037;-54
2022/01/09 02:45:20;;;;;;;2.92;1.00;;;21.60;32.80;;;;;;5050409;28;20021;-55
2022/01/09 02:47:46;;;;;;;3.28;1.10;;;21.60;32.90;;;;;;5052521;28;20451;-58
2022/01/09 02:50:28;;;;;;;2.63;1.15;;;21.60;32.90;;;;;;5033621;28;20298;-53
2022/01/09 02:53:01;;;;;;;3.05;1.10;;;21.60;32.90;;;;;;5051221;28;20029;-55
2022/01/09 02:55:28;;;;;;;3.60;1.05;;;21.60;32.90;;;;;;5052629;28;20371;-54
2022/01/09 02:57:59;;;;;;;3.75;1.33;;;21.60;32.90;;;;;;5052716;28;20445;-57
2022/01/09 03:00:28;;;;;;;3.13;1.30;;;21.60;32.90;;;;;;5051151;28;20054;-54
2022/01/09 03:02:55;;;;;;;3.25;1.10;;;21.60;32.90;;;;;;5052864;28;20115;-50
2022/01/09 03:05:21;;;;;;;3.80;1.05;;;21.60;32.90;;;;;;5052503;28;20032;-55
2022/01/09 03:07:48;;;;;;;3.22;1.00;;;21.60;32.90;;;;;;5052482;28;20348;-53
2022/01/09 03:10:16;;;;;;;2.78;1.25;;;21.70;32.90;;;;;;5051944;28;20493;-58
2022/01/09 03:12:42;;;;;;;3.53;1.13;;;21.70;32.90;;;;;;5049711;28;20454;-53
2022/01/09 03:15:09;;;;;;;2.28;0.90;;;21.70;32.90;;;;;;5052256;28;20095;-55
2022/01/09 03:17:35;;;;;;;2.83;1.10;;;21.70;32.90;;;;;;5053254;28;20335;-56
2022/01/09 03:20:03;;;;;;;3.33;1.27;;;21.70;32.90;;;;;;5056697;28;20142;-55
2022/01/09 03:22:28;;;;;;;3.47;1.48;;;21.70;32.90;;;;;;5055932;28;20061;-50
2022/01/09 03:24:55;;;;;;;2.67;1.00;;;21.70;32.90;;;;;;5056461;28;20071;-56
2022/01/09 03:27:21;;;;;;;2.63;0.90;;;21.60;32.90;;;;;;5055417;28;20021;-58
2022/01/09 03:29:47;;;;;;;2.75;0.90;;;21.70;32.90;;;;;;5055850;28;20486;-51
2022/01/09 03:32:13;;;;;;;3.03;1.05;;;21.60;32.90;;;;;;5056169;28;20017;-52
2022/01/09 03:34:39;;;;;;;3.58;1.50;;;21.70;33.00;;;;;;5055012;28;20025;-51
2022/01/09 03:37:05;;;;;;;3.47;1.25;;;21.60;32.90;;;;;;5055846;28;20322;-56
2022/01/09 03:39:31;;;;;;;3.65;1.15;;;21.60;32.90;;;;;;5053477;28;20067;-54
2022/01/09 03:41:58;;;;;;;2.50;1.08;;;21.60;32.90;;;;;;5054136;28;20052;-56
2022/01/09 03:44:25;;;;;;;2.67;0.88;;;21.60;32.90;;;;;;5043900;28;20035;-52
2022/01/09 03:46:51;;;;;;;4.88;1.40;;;21.60;32.90;;;;;;5045511;28;20032;-56
2022/01/09 03:49:17;;;;;;;4.03;1.35;;;21.60;32.90;;;;;;5037771;28;20075;-52
2022/01/09 03:51:45;;;;;;;3.55;1.25;;;21.60;32.90;;;;;;5044999;28;20096;-55
2022/01/09 03:54:11;;;;;;;3.30;1.42;;;21.60;32.90;;;;;;5025398;28;20063;-54
2022/01/09 03:56:36;;;;;;;2.95;1.17;;;21.60;32.90;;;;;;5040126;28;20049;-51
2022/01/09 03:59:02;;;;;;;3.30;1.10;;;21.60;32.90;;;;;;5048582;28;20062;-51
2022/01/09 04:01:28;;;;;;;3.20;1.10;;;21.60;32.90;;;;;;5040875;28;20085;-58
2022/01/09 04:03:54;;;;;;;3.05;0.90;;;21.60;32.90;;;;;;5035969;28;20065;-51
2022/01/09 04:06:20;;;;;;;3.03;1.00;;;21.60;32.90;;;;;;5055713;28;20020;-57
2022/01/09 04:08:47;;;;;;;3.60;1.40;;;21.60;32.90;;;;;;5054582;28;20032;-54
2022/01/09 04:11:19;;;;;;;3.78;1.13;;;21.60;32.90;;;;;;5055425;28;20024;-52
2022/01/09 04:13:44;;;;;;;2.97;1.10;;;21.50;32.90;;;;;;5052733;28;20021;-55
2022/01/09 04:16:10;;;;;;;2.67;1.05;;;21.50;32.90;;;;;;5055512;28;20344;-53
2022/01/09 04:18:36;;;;;;;3.90;1.25;;;21.50;32.90;;;;;;5054116;28;20021;-53
2022/01/09 04:21:02;;;;;;;2.60;0.90;;;21.50;32.90;;;;;;5055213;28;20104;-51
2022/01/09 04:23:27;;;;;;;3.03;1.00;;;21.50;32.90;;;;;;5054557;28;20442;-58
2022/01/09 04:25:53;;;;;;;3.30;1.10;;;21.50;32.80;;;;;;5055113;28;20025;-54
2022/01/09 04:28:19;;;;;;;2.80;0.95;;;21.50;32.80;;;;;;5054740;28;20425;-52
2022/01/09 04:30:45;;;;;;;2.63;1.10;;;21.50;32.80;;;;;;5054123;28;20017;-50
2022/01/09 04:33:11;;;;;;;2.95;1.17;;;21.50;32.80;;;;;;5054711;28;20021;-54
2022/01/09 04:35:38;;;;;;;3.83;1.13;;;21.50;32.80;;;;;;5054614;28;20498;-54
2022/01/09 04:38:04;;;;;;;2.15;1.13;;;21.50;32.80;;;;;;5036496;28;20428;-49
2022/01/09 04:40:30;;;;;;;4.28;1.25;;;21.50;32.80;;;;;;5052416;28;20112;-56
2022/01/09 04:43:01;;;;;;;3.95;1.23;;;21.50;32.80;;;;;;5053860;28;20348;-53
2022/01/09 04:45:28;;;;;;;2.55;0.90;;;21.50;32.80;;;;;;5054940;28;20039;-58
2022/01/09 04:48:05;;;;;;;2.78;1.10;;;21.50;32.80;;;;;;5053233;28;20021;-54
2022/01/09 04:50:33;;;;;;;1.70;0.88;;;21.50;32.80;;;;;;5054441;28;20021;-53
2022/01/09 04:53:04;;;;;;;3.30;1.25;;;21.40;32.70;;;;;;5054336;28;20025;-55
2022/01/09 04:55:32;;;;;;;3.50;1.13;;;21.50;32.80;;;;;;5054443;28;20451;-53
2022/01/09 04:57:58;;;;;;;3.08;1.02;;;21.50;32.70;;;;;;5054401;28;20036;-54
2022/01/09 05:00:25;;;;;;;3.35;1.13;;;21.50;32.70;;;;;;5051960;28;20334;-51
2022/01/09 05:02:51;;;;;;;3.28;1.08;;;21.50;32.70;;;;;;5054085;28;20131;-56
2022/01/09 05:05:17;;;;;;;2.00;1.00;;;21.50;32.70;;;;;;5054586;28;20468;-53
2022/01/09 05:07:44;;;;;;;2.42;1.05;;;21.40;32.60;;;;;;5053996;28;20424;-56
2022/01/09 05:10:11;;;;;;;2.45;0.93;;;21.40;32.60;;;;;;5054409;28;20059;-56
2022/01/09 05:12:36;;;;;;;2.47;1.10;;;21.40;32.60;;;;;;5054141;28;20041;-56
2022/01/09 05:15:04;;;;;;;3.47;1.10;;;21.40;32.60;;;;;;5054249;28;20343;-53
2022/01/09 05:17:30;;;;;;;1.90;0.85;;;21.40;32.60;;;;;;5053712;28;20055;-54
2022/01/09 05:19:59;;;;;;;2.30;0.95;;;21.40;32.60;;;;;;5053979;28;20305;-50
2022/01/09 05:22:26;;;;;;;3.92;1.20;;;21.40;32.50;;;;;;5053422;28;20033;-54
2022/01/09 05:24:54;;;;;;;5.32;1.27;;;21.40;32.50;;;;;;5053786;28;20020;-58
2022/01/09 05:27:21;;;;;;;2.47;0.90;;;21.40;32.50;;;;;;5053361;28;20082;-56
2022/01/09 05:29:47;;;;;;;2.65;0.95;;;21.40;32.50;;;;;;5053601;28;20033;-57
2022/01/09 05:32:13;;;;;;;3.17;1.20;;;21.40;32.50;;;;;;5053777;28;20036;-57
2022/01/09 05:34:39;;;;;;;2.72;0.98;;;21.40;32.50;;;;;;5053522;28;20037;-49
2022/01/09 05:37:05;;;;;;;3.10;1.02;;;21.40;32.50;;;;;;5050672;28;20028;-53
2022/01/09 05:39:32;;;;;;;3.63;1.30;;;21.40;32.40;;;;;;5053261;28;20021;-50
2022/01/09 05:41:59;;;;;;;3.05;1.20;;;21.40;32.40;;;;;;5053812;28;20025;-49
2022/01/09 05:44:25;;;;;;;3.15;1.15;;;21.40;32.40;;;;;;5053551;28;20095;-52
2022/01/09 05:46:51;;;;;;;2.88;1.05;;;21.40;32.40;;;;;;5053721;28;20057;-55
2022/01/09 05:49:17;;;;;;;2.90;0.82;;;21.40;32.40;;;;;;5053085;28;20426;-56
2022/01/09 05:51:42;;;;;;;2.30;1.00;;;21.30;32.30;;;;;;5053459;28;20108;-54
2022/01/09 05:54:08;;;;;;;2.63;1.17;;;21.30;32.30;;;;;;5053080;28;20031;-53
2022/01/09 05:56:34;;;;;;;1.98;0.57;;;21.30;32.30;;;;;;5053131;28;20049;-55
2022/01/09 05:59:01;;;;;;;3.95;0.98;;;21.30;32.30;;;;;;5052723;28;20074;-55
2022/01/09 06:01:27;;;;;;;2.55;1.00;;;21.30;32.30;;;;;;5053278;28;20394;-55
2022/01/09 06:03:53;;;;;;;2.80;0.90;;;21.30;32.30;;;;;;5052944;28;20037;-51
2022/01/09 06:06:19;;;;;;;2.45;1.20;;;21.30;32.30;;;;;;5053282;28;20061;-55
2022/01/09 06:08:45;;;;;;;2.25;0.80;;;21.30;32.30;;;;;;5052896;28;20027;-58
2022/01/09 06:11:11;;;;;;;2.33;0.98;;;21.30;32.30;;;;;;5053293;28;20100;-48
2022/01/09 06:13:37;;;;;;;3.60;1.15;;;21.30;32.30;;;;;;5052768;28;20436;-53
2022/01/09 06:16:03;;;;;;;2.60;1.25;;;21.30;32.30;;;;;;5052902;28;20335;-51
2022/01/09 06:18:30;;;;;;;2.03;0.90;;;21.30;32.30;;;;;;5053006;28;20104;-58
2022/01/09 06:20:55;;;;;;;1.20;0.70;;;21.30;32.30;;;;;;5052631;28;20694;-51
2022/01/09 06:23:23;;;;;;;1.58;0.70;;;21.30;32.30;;;;;;5050399;28;20042;-56
2022/01/09 06:25:51;;;;;;;2.03;0.80;;;21.30;32.30;;;;;;5052675;28;20032;-51
2022/01/09 06:28:18;;;;;;;3.25;1.02;;;21.30;32.30;;;;;;5052946;28;20440;-57
2022/01/09 06:30:44;;;;;;;2.30;1.05;;;21.30;32.30;;;;;;5052570;28;20430;-53
2022/01/09 06:33:11;;;;;;;2.42;0.85;;;21.30;32.30;;;;;;5052902;28;20048;-54
2022/01/09 06:35:38;;;;;;;3.28;1.13;;;21.30;32.30;;;;;;5052414;28;20056;-56
2022/01/09 06:38:04;;;;;;;2.10;0.73;;;21.30;32.30;;;;;;5035409;28;20033;-55
2022/01/09 06:40:30;;;;;;;2.90;0.75;;;21.30;32.30;;;;;;5052529;28;20452;-55
2022/01/09 06:42:56;;;;;;;1.92;0.70;;;21.30;32.30;;;;;;5052954;28;20420;-56
2022/01/09 06:45:24;;;;;;;3.05;1.00;;;21.20;32.20;;;;;;5052825;28;20110;-56
2022/01/09 06:47:52;;;;;;;2.92;0.80;;;21.20;32.20;;;;;;5052826;28;20068;-50
2022/01/09 06:50:18;;;;;;;2.70;0.90;;;21.20;32.20;;;;;;5052697;28;20021;-57
2022/01/09 06:52:44;;;;;;;1.60;0.70;;;21.20;32.20;;;;;;5053169;28;20021;-54
2022/01/09 06:55:11;;;;;;;3.25;1.02;;;21.20;32.20;;;;;;5056551;28;20040;-57
2022/01/09 06:57:37;;;;;;;2.83;0.95;;;21.20;32.20;;;;;;5038588;28;20347;-53
2022/01/09 07:00:04;;;;;;;2.80;0.88;;;21.20;32.20;;;;;;5056497;28;20028;-55
2022/01/09 07:02:30;;;;;;;2.20;0.70;;;21.20;32.10;;;;;;5056657;28;20024;-54
2022/01/09 07:04:56;;;;;;;1.80;0.60;;;21.20;32.10;;;;;;5037992;28;20443;-54
2022/01/09 07:07:21;;;;;;;1.77;0.70;;;21.20;32.10;;;;;;5056611;28;20035;-52
2022/01/09 07:09:47;;;;;;;2.38;0.95;;;21.20;32.10;;;;;;5056700;28;20068;-54
2022/01/09 07:12:13;;;;;;;2.67;0.82;;;21.20;32.10;;;;;;5056488;28;20458;-54
2022/01/09 07:14:39;;;;;;;2.13;0.93;;;21.20;32.10;;;;;;5056166;28;20056;-55
2022/01/09 07:17:05;;;;;;;2.22;0.82;;;21.20;32.10;;;;;;5056417;28;20091;-56
2022/01/09 07:19:30;;;;;;;1.67;0.60;;;21.20;32.10;;;;;;5055692;28;20440;-54
2022/01/09 07:21:56;;;;;;;1.85;0.70;;;21.20;32.10;;;;;;5056661;28;20028;-55
2022/01/09 07:24:22;;;;;;;1.10;0.50;;;21.20;32.10;;;;;;5055981;28;20036;-56
2022/01/09 07:26:47;;;;;;;2.03;0.70;;;21.20;32.00;;;;;;5053184;28;20027;-53
2022/01/09 07:29:13;;;;;;;2.60;1.10;;;21.10;32.00;;;;;;5055687;28;20029;-54
2022/01/09 07:31:39;;;;;;;1.55;0.60;;;21.10;32.10;;;;;;5055954;28;20024;-54
2022/01/09 07:34:05;;;;;;;2.15;1.05;;;21.10;32.00;;;;;;5055381;28;20033;-50
2022/01/09 07:36:31;;;;;;;1.77;0.77;;;21.10;32.10;;;;;;5055882;28;20032;-49
2022/01/09 07:38:57;;;;;;;2.08;0.80;;;21.10;32.00;;;;;;5056009;28;20029;-53
2022/01/09 07:41:23;;;;;;;2.95;0.80;;;21.10;32.00;;;;;;5055595;28;20155;-58
2022/01/09 07:43:49;;;;;;;3.20;0.90;;;21.10;32.00;;;;;;5055457;28;20048;-52
2022/01/09 07:46:15;;;;;;;1.98;0.80;;;21.10;32.00;;;;;;5055609;28;20028;-52
2022/01/09 07:48:41;;;;;;;1.65;0.68;;;21.10;32.10;;;;;;5055024;28;20235;-55
2022/01/09 07:51:06;;;;;;;1.67;0.80;;;21.10;32.70;;;;;;5055496;28;20020;-52
2022/01/09 07:53:32;;;;;;;1.85;0.50;;;21.10;32.00;;;;;;5053121;28;20024;-54
2022/01/09 07:55:58;;;;;;;1.95;0.70;;;21.10;32.00;;;;;;5055166;28;20048;-52
2022/01/09 07:58:24;;;;;;;1.10;0.50;;;21.10;32.00;;;;;;5055228;28;20091;-57
2022/01/09 08:00:50;;;;;;;2.83;0.75;;;21.10;32.60;;;;;;5055295;28;20340;-54
2022/01/09 08:03:16;;;;;;;2.13;0.65;;;21.10;32.00;;;;;;5055251;28;20446;-51
2022/01/09 08:05:42;;;;;;;2.65;0.82;;;21.10;32.00;;;;;;5054218;28;20021;-56
2022/01/09 08:08:08;;;;;;;0.85;0.60;;;21.10;32.00;;;;;;5054979;28;20413;-49
2022/01/09 08:10:34;;;;;;;1.70;0.70;;;21.10;31.90;;;;;;5053884;28;20050;-58
2022/01/09 08:13:00;;;;;;;1.88;1.05;;;21.10;31.90;;;;;;5054806;28;20025;-55
2022/01/09 08:15:29;;;;;;;2.38;0.80;;;21.10;32.10;;;;;;5054989;28;20092;-54
2022/01/09 08:17:55;;;;;;;3.47;0.90;;;21.10;32.20;;;;;;5055401;28;20048;-53
2022/01/09 08:20:21;;;;;;;2.33;0.90;;;21.00;32.40;;;;;;5052766;28;20146;-56
2022/01/09 08:22:47;;;;;;;2.97;0.90;;;21.00;32.50;;;;;;5052441;28;20075;-56
2022/01/09 08:25:15;;;;;;;1.83;0.68;;;21.00;32.50;;;;;;5053408;28;20102;-51
2022/01/09 08:27:43;;;;;;;3.88;0.98;;;21.10;32.60;;;;;;5036539;28;20032;-53
2022/01/09 08:30:10;;;;;;;5.18;0.90;;;21.10;32.60;;;;;;5036150;28;20117;-56
2022/01/09 08:32:37;;;;;;;2.88;0.70;;;21.20;32.60;;;;;;5052985;28;20029;-55
2022/01/09 08:35:03;;;;;;;2.33;0.60;;;21.30;32.50;;;;;;5036660;28;20071;-56
2022/01/09 08:37:29;;;;;;;3.88;0.95;;;21.40;32.50;;;;;;5055828;28;20029;-54
2022/01/09 08:39:55;;;;;;;2.22;0.90;;;21.40;32.40;;;;;;5055295;28;20028;-49
2022/01/09 08:42:22;;;;;;;2.40;0.68;;;21.50;32.40;;;;;;5055159;28;20120;-54
2022/01/09 08:44:48;;;;;;;1.88;0.60;;;21.60;32.30;;;;;;5055614;28;20024;-57
2022/01/09 08:47:14;;;;;;;2.95;0.70;;;21.70;32.20;;;;;;5054209;28;20021;-53
2022/01/09 08:49:40;;;;;;;1.75;0.80;;;21.80;32.10;;;;;;5055476;28;20451;-55
2022/01/09 08:52:06;;;;;;;2.28;0.90;;;21.90;32.10;;;;;;5054530;28;20021;-52
2022/01/09 08:54:32;;;;;;;2.08;0.80;;;22.00;32.00;;;;;;5055583;28;20024;-55
2022/01/09 08:56:58;;;;;;;1.92;0.80;;;22.10;31.90;;;;;;5054554;28;20044;-50
2022/01/09 08:59:26;;;;;;;1.65;0.73;;;22.10;31.80;;;;;;5054364;28;20140;-53
2022/01/09 09:01:52;;;;;;;1.90;0.68;;;22.20;31.70;;;;;;5054797;28;20447;-56
2022/01/09 09:04:18;;;;;;;2.60;0.82;;;22.30;31.70;;;;;;5054528;28;20017;-57
2022/01/09 09:06:44;;;;;;;1.20;0.60;;;22.40;31.60;;;;;;5055307;28;20036;-51
2022/01/09 09:09:11;;;;;;;3.17;0.75;;;22.40;31.50;;;;;;5054682;28;20033;-50
2022/01/09 09:11:38;;;;;;;1.35;0.73;;;22.50;31.50;;;;;;5055158;28;20098;-54
2022/01/09 09:14:04;;;;;;;3.00;1.23;;;22.60;31.50;;;;;;5054868;28;20127;-54
2022/01/09 09:16:31;;;;;;;2.33;0.80;;;22.60;31.30;;;;;;5038607;28;20094;-50
2022/01/09 09:18:57;;;;;;;2.20;0.70;;;22.70;31.30;;;;;;5050802;28;20078;-54
2022/01/09 09:21:23;;;;;;;2.53;0.95;;;22.70;31.20;;;;;;5053196;28;20029;-52
2022/01/09 09:23:49;;;;;;;0.82;0.52;;;22.80;31.20;;;;;;5053526;28;20037;-51
2022/01/09 09:26:16;;;;;;;3.00;0.95;;;22.90;31.10;;;;;;5055215;28;20021;-52
2022/01/09 09:28:45;;;;;;;3.38;0.82;;;22.90;31.00;;;;;;5054710;28;20021;-48
2022/01/09 09:31:11;;;;;;;2.78;0.80;;;23.00;31.00;;;;;;5049825;28;20025;-52
2022/01/09 09:33:37;;;;;;;2.70;0.90;;;23.00;30.90;;;;;;5045177;28;20025;-52
2022/01/09 09:36:03;;;;;;;3.80;1.10;;;23.10;30.80;;;;;;5034564;28;20064;-51
2022/01/09 09:38:31;;;;;;;2.25;1.10;;;23.10;30.70;;;;;;5035165;28;20025;-56
2022/01/09 09:40:58;;;;;;;1.65;0.70;;;23.20;30.60;;;;;;5045606;28;20082;-49
2022/01/09 09:43:24;;;;;;;1.70;0.65;;;23.30;30.60;;;;;;5052591;28;20048;-54
2022/01/09 09:45:51;;;;;;;3.15;0.90;;;23.30;30.50;;;;;;5053509;28;20025;-56
2022/01/09 09:48:17;;;;;;;1.35;0.70;;;23.30;30.40;;;;;;5055691;28;20033;-52
2022/01/09 09:50:43;;;;;;;3.45;1.00;;;23.40;30.40;;;;;;5016341;28;20488;-49
2022/01/09 09:53:09;;;;;;;2.65;1.15;;;23.40;30.40;;;;;;5035546;28;20030;-51
2022/01/09 09:55:35;;;;;;;3.33;1.02;;;23.50;30.30;;;;;;5023991;28;20115;-54
2022/01/09 09:58:01;;;;;;;1.30;0.75;;;23.50;30.30;;;;;;5055114;28;20029;-49
2022/01/09 10:00:27;;;;;;;2.65;1.00;;;23.60;30.30;;;;;;5058350;28;20021;-46
2022/01/09 10:02:56;;;;;;;2.70;0.88;;;23.60;30.20;;;;;;5057528;28;20439;-49
2022/01/09 10:05:24;;;;;;;3.58;0.90;;;23.70;30.20;;;;;;5071508;28;20106;-49
2022/01/09 10:08:03;;;;;;;2.60;0.75;;;23.70;30.10;;;;;;5055381;28;20079;-49
2022/01/09 10:10:30;;;;;;;1.23;0.60;;;23.70;30.00;;;;;;5054705;28;20025;-51
2022/01/09 10:13:18;;;;;;;2.55;0.70;;;23.80;30.00;;;;;;5037593;28;20033;-53
2022/01/09 10:15:58;;;;;;;1.88;0.80;;;23.80;30.00;;;;;;5055842;28;20031;-52
2022/01/09 10:18:43;;;;;;;2.90;1.17;;;23.90;30.00;;;;;;5055302;28;20036;-51
2022/01/09 10:21:14;;;;;;;1.85;0.73;;;23.90;30.00;;;;;;5038405;28;20025;-51
2022/01/09 10:24:11;;;;;;;1.55;0.60;;;23.80;29.90;;;;;;5054647;28;20466;-52
2022/01/09 10:26:39;;;;;;;3.58;0.73;;;23.90;29.90;;;;;;5054624;28;20024;-50
2022/01/09 10:29:07;;;;;;;2.72;0.70;;;23.90;29.90;;;;;;5053898;28;20044;-44
2022/01/09 10:31:47;;;;;;;2.17;0.80;;;23.90;30.50;;;;;;5054032;28;20028;-57
2022/01/09 10:34:16;;;;;;;1.45;0.80;;;24.00;30.00;;;;;;5053234;28;20017;-44
2022/01/09 10:36:51;;;;;;;1.98;0.60;;;24.00;30.00;;;;;;5053639;28;20078;-62
2022/01/09 10:39:27;;;;;;;1.38;0.60;;;24.00;30.00;;;;;;5052880;28;20044;-59
2022/01/09 10:42:03;;;;;;;2.95;1.20;;;23.90;29.90;;;;;;5053062;28;20027;-56
2022/01/09 10:44:35;;;;;;;4.47;1.95;;;23.80;30.00;;;;;;5052884;28;20039;-56
2022/01/09 10:47:03;;;;;;;8.48;2.58;;;23.80;30.20;;;;;;5050826;28;20317;-57
2022/01/09 10:49:38;;;;;;;6.70;3.10;;;23.70;30.60;;;;;;5053208;28;20025;-52
2022/01/09 10:52:19;;;;;;;7.90;3.20;;;23.80;31.10;;;;;;5052315;28;20352;-51
2022/01/09 10:54:47;;;;;;;7.20;3.53;;;23.80;31.50;;;;;;5050887;28;20082;-46
2022/01/09 10:57:14;;;;;;;6.50;2.88;;;23.70;31.80;;;;;;5049772;28;20316;-53
2022/01/09 10:59:41;;;;;;;5.25;2.58;;;23.70;32.00;;;;;;5057238;28;20106;-53
2022/01/09 11:02:12;;;;;;;6.78;2.25;;;23.80;32.10;;;;;;5052215;28;20021;-50
2022/01/09 11:04:40;;;;;;;5.60;2.92;;;23.80;32.00;;;;;;5054269;28;20118;-53
2022/01/09 11:07:06;;;;;;;10.95;3.85;;;23.90;32.10;;;;;;5068280;28;20038;-51
2022/01/09 11:09:33;;;;;;;11.10;4.25;;;23.80;32.40;;;;;;5073914;28;20055;-57
2022/01/09 11:11:59;;;;;;;9.98;5.10;;;23.80;32.90;;;;;;5053888;28;20029;-51
2022/01/09 11:14:27;;;;;;;8.25;4.20;;;23.80;33.50;;;;;;5052618;28;20040;-48
2022/01/09 11:16:55;;;;;;;9.55;4.50;;;23.80;34.00;;;;;;5050839;28;20061;-49
2022/01/09 11:19:39;;;;;;;8.10;3.75;;;23.80;34.00;;;;;;5052492;28;20095;-54
2022/01/09 11:22:10;;;;;;;11.23;4.95;;;23.80;34.00;;;;;;5051790;28;20025;-49
2022/01/09 11:25:13;;;;;;;10.35;4.68;;;23.80;34.30;;;;;;5057173;28;20037;-53
2022/01/09 11:28:17;;;;;;;13.23;5.45;;;23.80;34.60;;;;;;5052405;28;20106;-51
2022/01/09 11:31:07;;;;;;;10.85;4.95;;;23.80;35.10;;;;;;5038363;28;20068;-56
2022/01/09 11:33:42;;;;;;;12.07;5.40;;;23.80;35.30;;;;;;5053955;28;20117;-46
2022/01/09 11:36:49;;;;;;;9.20;3.63;;;23.70;35.80;;;;;;5052169;28;20021;-61
2022/01/09 11:39:23;;;;;;;6.53;2.50;;;23.80;35.10;;;;;;5034226;28;20501;-51
2022/01/09 11:42:09;;;;;;;4.57;2.42;;;23.60;34.50;;;;;;5055432;28;20376;-56
2022/01/09 11:44:43;;;;;;;5.40;2.15;;;23.60;34.10;;;;;;5054961;28;20033;-53
2022/01/09 11:47:09;;;;;;;;;;;23.60;33.90;;;;;;5057279;28;20051;-50
2022/01/09 11:49:53;;;;;;;3.63;1.50;;;23.60;33.80;;;;;;5057422;28;19940;-52
2022/01/09 11:52:26;;;;;;;3.20;1.42;;;23.60;34.20;;;;;;5049520;28;20032;-56
2022/01/09 11:55:00;;;;;;;4.43;1.90;;;23.60;33.40;;;;;;5055129;28;20029;-53
2022/01/09 11:57:44;;;;;;;4.10;1.60;;;23.60;33.20;;;;;;5053808;28;20118;-52
2022/01/09 12:00:34;;;;;;;3.85;1.77;;;23.60;33.10;;;;;;5058940;28;20495;-52
2022/01/09 12:03:20;;;;;;;4.80;2.10;;;23.60;32.90;;;;;;5054775;28;20040;-47
2022/01/09 12:06:10;;;;;;;3.55;1.90;;;23.50;32.90;;;;;;5055521;28;20158;-56
2022/01/09 12:09:00;;;;;;;4.65;1.80;;;23.50;32.80;;;;;;5049254;28;20033;-52
2022/01/09 12:12:33;;;;;;;3.35;1.75;;;23.50;32.70;;;;;;5039776;28;20060;-51
2022/01/09 12:17:36;;;;;;;3.88;1.63;;;23.40;32.60;;;;;;4972750;28;20457;-50
2022/01/09 12:20:14;;;;;;;4.05;1.95;;;23.40;32.50;;;;;;5031895;28;20047;-46
2022/01/09 12:22:43;;;;;;;3.03;1.58;;;23.50;32.50;;;;;;5053917;28;20029;-52
2022/01/09 12:25:24;;;;;;;3.42;1.67;;;23.50;32.30;;;;;;5053826;28;20159;-49
2022/01/09 12:28:09;;;;;;;4.10;1.70;;;23.50;32.20;;;;;;5053571;28;20467;-48
2022/01/09 12:30:41;;;;;;;3.53;1.60;;;23.50;32.20;;;;;;5053537;28;20033;-50
2022/01/09 12:33:12;;;;;;;2.42;1.20;;;23.50;32.70;;;;;;5052515;28;20029;-47
2022/01/09 12:36:08;;;;;;;3.75;1.20;;;23.60;32.00;;;;;;5053323;28;20078;-48
2022/01/09 12:38:39;;;;;;;3.47;1.40;;;23.60;31.90;;;;;;5052661;28;20021;-50
2022/01/09 12:41:07;;;;;;;3.25;1.35;;;23.60;31.90;;;;;;5053107;28;20013;-49
2022/01/09 12:43:35;;;;;;;3.13;1.10;;;23.60;31.80;;;;;;5053503;28;20466;-53
2022/01/09 12:46:13;;;;;;;2.65;1.30;;;23.60;31.70;;;;;;5054217;28;20129;-52
2022/01/09 12:48:42;;;;;;;3.88;1.30;;;23.60;31.70;;;;;;5051918;28;20021;-49
2022/01/09 12:51:10;;;;;;;2.88;0.98;;;23.60;31.70;;;;;;5054316;28;20502;-52
2022/01/09 12:53:50;;;;;;;2.85;1.25;;;23.60;31.60;;;;;;5054671;28;20443;-48
2022/01/09 12:56:18;;;;;;;3.53;1.20;;;23.60;31.60;;;;;;5054861;28;20041;-49
2022/01/09 12:58:50;;;;;;;3.88;1.38;;;23.60;31.50;;;;;;5055455;28;20029;-52